Úvod História Fotogaléria Ponuka Kurzy Kontakt

Objednávky od 01. 01. 2017

Číslo objednávky Dodávateľ IČO Predmet dodávky Hodnota s DPH Dátum vyhotovenia Vyhotovil Funkcia
4500030094 NÁDEJ-výd.zdr.potrieb,Levoča 33982317 zdravotnícky materiál 84,42 EUR 03.10.2016 M.Tatarková hospodárka
4500030177 JRK Waste Management, s.r.o. 45423237 komposter 1 380,00 EUR 06.10.2016 M.Tatarková hospodárka
4500030178 DATAS-Lučivjanský, SNV 35320214 kopírovací stroj Sharp 1 848,00 EUR 06.10.2016 M.Tatarková hospodárka
4500030182 DATAS-Lučivjanský, SNV 35320214 kopírovací stroj Brother 149,00 EUR 06.10.2016 M.Tatarková hospodárka
4500030213 EL spol.s.r.o., SNV 31652859 analýza potravín 56,04 EUR 06.10.2016 M.Tatarková hospodárka
4500030219 Mgr.M. Valkovič,KNIHATAR,PP 47351969 vzduch.puška s prísluš. 2 270,00 EUR 10.10.2016 M.Tatarková hospodárka
4500031396 AJFA+AVIS 31602436 predpl. Mzd.účt.r.2017 49,50 EUR 02.01.2017 M.Tatarková hospodárka
4500031478 Poradca podnikateľa,s.r.o.Žilina 31592503 Verejná správa-vyúčt.r.2016 13,67 EUR 09.01.2017 M.Tatarková hospodárka
1003030009 Ľubomír Kaňuch, Iliašovce 34572970 služby bezpečn.technika 300,00 EUR 09.01.2017 M.Tatarková hospodárka
1003020020 Mäsovýroba Dončák 46305718 zmluva r.2017 4 641,90 EUR 20.01.2017 M.Tatarková hospodárka
1003020021 Vladimír Bigoš, Levoča 10757597 zelenina a ovocie r.2017 2 414,52 EUR 10.01.2017 M.Tatarková hospodárka
1003020026 Spiš Market s.r.o., SNV 31729541 mäso, mäs.výr., hydina r.2017 3 776,72 EUR 10.01.2017 M.Tatarková hospodárka
1003020027 Bidfood Slovakia,s.r.o., NMnV 34152199 mraz.výr., zelen. a hydina, r.2017 1 788,91 EUR 26.01.2017 M.Tatarková hospodárka
1003020028 Mária Galajdová, Levoča 14372851 potraviny r.2017 11 206,28 EUR 10.01.2017 M.Tatarková hospodárka
4500031504 Vl.Kamenický,Spiš. Podhradie 37480642 pečiatky a menovky 114,80 EUR 12.01.2017 M.Tatarková hospodárka
4500031572 Černický Pavol, Nemešany 14375168 kontrola has.prístr. a hydrant 412,00 EUR 16.01.2017 M.Tatarková hospodárka
4500031711 SYSTEMHOUSE, Levoča 34802665 elektronický terč 120,00 EUR 18.01.2017 M.Tatarková hospodárka
4500031712 B2B Partner,s.r.o.,Bratislava 44413467 prístavný kontajner 528,00 EUR 20.01.2017 M.Tatarková hospodárka
4500031722 Kamil Kopkáš Erkam, Levoča 44064039 odpad. prípojka pre kompostér 115,55 EUR 23.01.2017 M.Tatarková hospodárka
4500031723 Bigoš Vladimír, Levoča 10757597 potraviny na vyuč. 15,26 EUR 23.01.2017 M.Tatarková hospodárka
4500031914 Dušan Slaninka, Harichovce 10756744 odbor.prehl.RTP, plyn.kotlov a spotr. 380,08 EUR 06.02.2017 M.Tatarková hospodárka
4500031980 UNIQA poisťovňa a.s.,Bratislava 653501 poistenie majetku 03/2017-03/2018 1 131,00 EUR 09.02.2017 M.Tatarková hospodárka
4500032073 Bigoš Vladimír, Levoča 10757597 potraviny 12,37 EUR 27.02.2017 M.Tatarková hospodárka
4500032086 PEKZA, s.r.o., Levoča 36456900 nerezový plech 90,00 EUR 15.02.2017 M.Tatarková hospodárka
4500032200 Stanislav Spišák, Levoča 37476963 prekládka elektr. zariadenia 248,24 EUR 02.03.2017 M.Tatarková hospodárka
4500032207 PECE spol.s.r.o., Očová 36618233 učebné pomôcky 356,00 EUR 03.03.2017 M.Tatarková hospodárka
4500032261 Tehelňa STOVA, s.r.o. SNV 31703747 materiál na údržbu 214,82 EUR 13.03.2017 M.Tatarková hospodárka
4500032265 Stavebniny, s.r.o., Harichovce 36571547 materiál na údržbu 23,11 EUR 13.03.2017 M.Tatarková hospodárka
4500032280 POK Peter Vanacký, Levoča 37479393 kontrola komínov 99,00 EUR 13.03.2017 M.Tatarková hospodárka
4500032301 Marián Slejzák, Smižany 33061246 vlajky SR a EU 198,00 EUR 16.03.2017 M.Tatarková hospodárka
4500032367 PP-revízie, s.r.o. 44612231 odbor.prehl. tlak. nádob plyn.kotolne 114,00 EUR 13.03.2017 M.Tatarková hospodárka
4500032396 RTVS, Bratislava 47232480 koncesionársky poplatok r.2017 222,96 EUR 20.03.2017 M.Tatarková hospodárka
4500032441 V.Kamenický, Spiš.Podhradie 37480642 pečiatka trodat 55,38 EUR 20.03.2017 M.Tatarková hospodárka
4500032489 Ing.Anton Ferenc-TOPO,Prešov 32923244 čistiace prostriedky 425,40 EUR 23.03.2017 M.Tatarková hospodárka
4500032534 Jozef Kuľa, Levoča 33058237 výroba zábradlia 153,32 EUR 30.03.2017 M.Tatarková hospodárka
4500032535 Bigoš Vladimír, Levoča 10757597 potraviny 28,11 EUR 30.03.2017 M.Tatarková hospodárka
4500032566 Ján Petras, Veľká Lomnica 34895426 oprava havarij.stavu kanalizácie 188,48 EUR 31.03.2017 M.Tatarková hospodárka
4500032536 KP plus, s.r.o. Kežmarok 36475025 kancelárske potreby 235,43 EUR 03.04.2017 M.Tatarková hospodárka
4500032539 KP plus, s.r.o. Kežmarok 36475025 kancelárske potreby 364,87 EUR 03.04.2017 M.Tatarková hospodárka
4500032673 KA-BE s.r.o., Žilina 50401815 náradie na upratovanie 526,92 EUR 06.04.2017 M.Tatarková hospodárka
4500032674 Jozef Danko ml., Poprad 43791522 čistenie kanalizácie 145,00 EUR 10.04.2017 M.Tatarková hospodárka
4500032740 ACS spol. s.r.o., SNV 36582298 vysávač na okná 151,99 EUR 10.04.2017 M.Tatarková hospodárka
4500032768 PaedDr. K. Volčková, Kendice 46443983 multifunkčný plašič škodcov 80,00 EUR 17.04.2017 M.Tatarková hospodárka
4500032769 V a V Akademy, s.r.o., Prešov 46106723 popl. za vdeláv. Kurz - bezpeč.tech. 550,00 EUR 17.04.2017 M.Tatarková hospodárka
4500032772 KP plus, s.r.o. Kežmarok 36475025 kancelárske potreby 76,38 EUR 18.04.2017 M.Tatarková hospodárka
4500032776 Vladimír Dulovič, Levoča 10763368 kontrola ozvučenia r. 2017 60,00 EUR 19.04.2017 M.Tatarková hospodárka
4500032777 Vladimír Dulovič, Levoča 10763368 5x revízia kamery,rozhl.,popl.,anten. 120,00 EUR 19.04.2017 M.Tatarková hospodárka
4500032852 Hotel ARKADA, s.r.o.,Levoča 36451134 stravov.služby-seminár 471,90 EUR 19.04.2017 M.Tatarková hospodárka
4500032856 RNDr.Allan Dudinský, Úloža 31303951 masážna emulzia 34,45 EUR 24.04.2017 M.Tatarková hospodárka
4500032859 ZONIC-Zoričák Jozef, Levoča 37479369 žiarovky 1 068,25 EUR 24.04.2017 M.Tatarková hospodárka
4500032866 PhDr. Potengová, Levoča 37785923 terapeut.-poradenská starostl. 70,00 EUR 19.04.2017 M.Tatarková hospodárka
4500032868 Mesto Levoča 329321 miestny popl. za kom.odpad r.2017 715,00 EUR 19.04.2017 M.Tatarková hospodárka
4500032869 Mesto Levoča 329321 daň z nehnuteľnosti r.2017 1 128,80 EUR 19.04.2017 M.Tatarková hospodárka
4500032881 Bigoš Vladimír, Levoča 10757597 potraviny na vyuč. 9,41 EUR 26.04.2017 M.Tatarková hospodárka
4500032981 Pergamon,spol.s.r.o., Bratislava 31327681 tonery 133,36 EUR 27.04.2017 M.Tatarková hospodárka
4500032982 Pergamon,spol.s.r.o., Bratislava 31327681 tonery 2 462,33 EUR 27.04.2017 M.Tatarková hospodárka
4500032935 Ján Lorko,JAPA AUTO,Levoča 40858596 materiál na auto údržbu 60,80 EUR 04.05.2017 M.Tatarková hospodárka
4500032936 Poradca s.r.o., Žilina 36371271 predplatné Poradca r.2018 49,80 EUR 05.05.2017 M.Tatarková hospodárka
4500032980 Generali Poisťovňa,a.s.Bratislava 35709332 havarijné poistenie Škoda Octavia 310,28 EUR 10.05.2017 M.Tatarková hospodárka
4500033026 Tyflocomp s.r.o., Bratislava 35709413 výmena batérií-brail.pís.stroj 50,00 EUR 09.05.2017 M.Tatarková hospodárka
4500033047 Technická inšpekcia,a.s.,Košice 36653004 vykon.opak.úradnej skúšky-výťah 215,04 EUR 11.05.2017 M.Tatarková hospodárka
4500033048 Železiarstvo Olekšák,s.r.o.Levoč 36781410 nožnice záhradné 26,00 EUR 10.05.2017 M.Tatarková hospodárka
4500033064 Technické služby mesta Levoča 35528052 uskladnenie objemného odpadu 28,04 EUR 10.05.2017 M.Tatarková hospodárka
4500033071 František Rybka, Poprad 44771258 servis vzduchotechniky 200,00 EUR 17.05.2017 M.Tatarková hospodárka
4500033073 Atlantis Systems,s.r.o.,Bratisl. 35844230 web hosting Beta-obn.domény r.17 90,31 EUR 17.05.2017 M.Tatarková hospodárka
4500033121 MEVA-SK, s.r.o., Rožňava 31681051 betónové kvetináče vonkajšie 763,20 EUR 15.05.2017 M.Tatarková hospodárka
4500033135 Decathlon SK s.r.o.,Bratislava 47658827 športové potreby 19,57 EUR 19.05.2017 M.Tatarková hospodárka
4500033161 Stavebná prevádzkáreň,Levoča 36451975 služby UNC - vykládka tovaru 15,00 EUR 19.05.2017 M.Tatarková hospodárka
4500033218 Ing.Ľ.Petruška, Spiš.Vlachy 44953836 polystyrénové lišty 118,00 EUR 25.05.2017 M.Tatarková hospodárka
4500033222 ACS s.r.o., SNV 36582298 oprava tlak. čístiča Kärcher 162,24 EUR 25.05.2017 M.Tatarková hospodárka
4500033293 TRINET Corp., s.r.o.K.N.Mesto 36362786 petanque-sada gulí alu kufor 26,80 EUR 30.05.2017 M.Tatarková hospodárka
4500033294 Technické služby mesta Levoča 35528052 popl. za usklad.objem. Odpadu 17,85 EUR 22.05.2017 M.Tatarková hospodárka
4500033324 Ján Živčák-Záhradn.,Lieskovany 33850691 okrasné dreviny 94,70 EUR 30.05.2017 M.Tatarková hospodárka
4500033331 K@K BUS s.r.o., Sp.Podhradie 47551992 preprava autobusom 600,00 EUR 30.05.2017 M.Tatarková hospodárka
4500033359 Martin Hasaj PROAUTO,Levoča 45266484 autokozmetika 67,00 EUR 01.06.2017 M.Tatarková hospodárka
4500033360 Martin Hasaj PROAUTO,Levoča 45266484 servis osobných áut 358,00 EUR 01.06.2017 M.Tatarková hospodárka
4500033362 V a V Akademy s.r.o.,Prešov 46106723 odbor.príprava technikov PO 399,00 EUR 05.06.2017 M.Tatarková hospodárka
4500033363 Marta Točoňová, Levoča 34804951 práčka WHIRPOOL 289,00 EUR 05.06.2017 M.Tatarková hospodárka
4500033365 Vladimír Bigoš, Levoča 10757597 potraviny 37,46 EUR 06.06.2017 M.Tatarková hospodárka
4500033465 Železiarstvo Olekšák,s.r.o.Levoč 36781410 plast.nádoby do keram.dielne 9,50 EUR 12.06.2017 M.Tatarková hospodárka
4500033467 Železiarstvo Olekšák,s.r.o.Levoč 36781410 materiál na údržbu 59,43 EUR 12.06.2017 M.Tatarková hospodárka
4500033469 Železiarstvo Olekšák,s.r.o.Levoč 36781410 materiál na údržbu kanalizácie 51,60 EUR 12.06.2017 M.Tatarková hospodárka
4500033515 TIME s.r.o., Prešov 44968205 záhradnícke potreby 112,39 EUR 16.06.2017 M.Tatarková hospodárka
4500033516 KP plus, s.r.o. 36475025 kancelárske potreby 3,97 EUR 16.06.2017 M.Tatarková hospodárka
4500033575 PRO GRUP, s.r.o., SNV 36610607 polep auta rezanou samolepkou 93,60 EUR 19.06.2017 M.Tatarková hospodárka
4500033594 Aureus Services, s.r.o.Malacky 45442088 pečiatky 59,27 EUR 12.06.2017 M.Tatarková hospodárka
4500033605 RNDr.Allan Dudinský, Levoča 31303951 plachta nepremokavá 50,86 EUR 23.06.2017 M.Tatarková hospodárka
4500033634 Martina Klembarová, Levoča 50093355 všeobecný materiál 77,45 EUR 26.06.2017 M.Tatarková hospodárka
4500033635 Martina Klembarová, Levoča 50093355 farby a maliarske potreby 146,64 EUR 26.06.2017 M.Tatarková hospodárka
4500033636 Vladimír Dulovič, Levoča 10763368 zariadenie a monitor na kamer.syst. 656,29 EUR 26.06.2017 M.Tatarková hospodárka
4500033637 Bigoš Vladimír, Levoča 10757597 potraviny 15,77 EUR 26.06.2017 M.Tatarková hospodárka
4500033756 MIVA Market s.r.o., Smižany 36704041 čistiace a dezinfekčné prostriedky 1 344,29 EUR 10.07.2017 M.Tatarková hospodárka
4500033839 Xepap s.r.o., Zvolen 31628605 kancelárske potreby 274,61 EUR 07.07.2017 M.Tatarková hospodárka
4500033847 Xepap s.r.o., Zvolen 31628605 kancelárske potreby 47,76 EUR 14.07.2017 M.Tatarková hospodárka
1003030010 Slovak Telekom a.s.,Bratislava 35763469 zmluva na r.2017 - internt.služby 150,00 EUR 10.07.2017 M.Tatarková hospodárka
1003030011 Levonet s.r.o., Levoča 36480983 zmluva na r.2017 - internt.služby 600,00 EUR 11.07.2017 M.Tatarková hospodárka
M.Tatarková hospodárka

© 2005 Rehabilitačné stredisko pre zrakovo postihnutých | Kasárenská 16, 054 01 Levoča
tel: +421 053 416 6411 | telefax: +421 053 416 6432 | e-mail: rszp@rszp.sk